地図

経路データ

SID SEASON NUMBER BASIN SUBBASIN NAME ISO_TIME NATURE LAT LON WMO_WIND WMO_PRES WMO_AGENCY TRACK_TYPE DIST2LAND LANDFALL IFLAG USA_AGENCY USA_ATCF_ID USA_LAT USA_LON USA_RECORD USA_STATUS USA_WIND USA_PRES USA_SSHS USA_R34_NE USA_R34_SE USA_R34_SW USA_R34_NW USA_R50_NE USA_R50_SE USA_R50_SW USA_R50_NW USA_R64_NE USA_R64_SE USA_R64_SW USA_R64_NW USA_POCI USA_ROCI USA_RMW USA_EYE TOKYO_LAT TOKYO_LON TOKYO_GRADE TOKYO_WIND TOKYO_PRES TOKYO_R50_DIR TOKYO_R50_LONG TOKYO_R50_SHORT TOKYO_R30_DIR TOKYO_R30_LONG TOKYO_R30_SHORT TOKYO_LAND CMA_LAT CMA_LON CMA_CAT CMA_WIND CMA_PRES HKO_LAT HKO_LON HKO_CAT HKO_WIND HKO_PRES NEWDELHI_LAT NEWDELHI_LON NEWDELHI_GRADE NEWDELHI_WIND NEWDELHI_PRES NEWDELHI_CI NEWDELHI_DP NEWDELHI_POCI REUNION_LAT REUNION_LON REUNION_TYPE REUNION_WIND REUNION_PRES REUNION_TNUM REUNION_CI REUNION_RMW REUNION_R34_NE REUNION_R34_SE REUNION_R34_SW REUNION_R34_NW REUNION_R50_NE REUNION_R50_SE REUNION_R50_SW REUNION_R50_NW REUNION_R64_NE REUNION_R64_SE REUNION_R64_SW REUNION_R64_NW BOM_LAT BOM_LON BOM_TYPE BOM_WIND BOM_PRES BOM_TNUM BOM_CI BOM_RMW BOM_R34_NE BOM_R34_SE BOM_R34_SW BOM_R34_NW BOM_R50_NE BOM_R50_SE BOM_R50_SW BOM_R50_NW BOM_R64_NE BOM_R64_SE BOM_R64_SW BOM_R64_NW BOM_ROCI BOM_POCI BOM_EYE BOM_POS_METHOD BOM_PRES_METHOD NADI_LAT NADI_LON NADI_CAT NADI_WIND NADI_PRES WELLINGTON_LAT WELLINGTON_LON WELLINGTON_WIND WELLINGTON_PRES DS824_LAT DS824_LON DS824_STAGE DS824_WIND DS824_PRES TD9636_LAT TD9636_LON TD9636_STAGE TD9636_WIND TD9636_PRES TD9635_LAT TD9635_LON TD9635_WIND TD9635_PRES TD9635_ROCI NEUMANN_LAT NEUMANN_LON NEUMANN_CLASS NEUMANN_WIND NEUMANN_PRES MLC_LAT MLC_LON MLC_CLASS MLC_WIND MLC_PRES USA_GUST BOM_GUST BOM_GUST_PER REUNION_GUST REUNION_GUST_PER USA_SEAHGT USA_SEARAD_NE USA_SEARAD_SE USA_SEARAD_SW USA_SEARAD_NW STORM_SPEED STORM_DIR
1976270N13253 1976 118 EP MM LIZA 1976-09-25 18:00:00 TS 13.0000 -107.000 25 hurdat_epa main 701 701 O________OO___ hurdat_epa EP121976 13.0000 -107.000 TD 25 -1 13.0000 -107.000 TC 25 13.0000 -107.000 1 25 10 270
1976270N13253 1976 118 EP MM LIZA 1976-09-25 21:00:00 TS 12.9986 -107.521 main 731 731 P________PP___ EP121976 13.0077 -107.520 TD 25 -1 13.0077 -107.520 TC 25 12.9620 -107.524 1 25 10 275
1976270N13253 1976 118 EP MM LIZA 1976-09-26 00:00:00 TS 13.0800 -108.000 25 hurdat_epa main 755 755 O________OO___ hurdat_epa EP121976 13.1000 -108.000 TD 25 -1 13.1000 -108.000 TC 25 13.0000 -108.000 1 25 9 289
1976270N13253 1976 118 EP MM LIZA 1976-09-26 03:00:00 TS 13.2957 -108.400 main 763 752 P________PP___ EP121976 13.3274 -108.402 TD 27 -1 13.3274 -108.402 TC 27 13.1687 -108.388 1 26 8 306
1976270N13253 1976 118 EP MM LIZA 1976-09-26 06:00:00 TS 13.5663 -108.697 30 hurdat_epa main 752 745 O________OP___ hurdat_epa EP121976 13.6000 -108.700 TD 30 -1 13.6000 -108.700 TC 30 13.4315 -108.683 1 27 7 316
1976270N13253 1976 118 EP MM LIZA 1976-09-26 09:00:00 TS 13.7916 -108.899 main 745 734 P________PP___ EP121976 13.8074 -108.903 TD 30 -1 13.8074 -108.903 TC 30 13.7285 -108.887 1 28 5 326
1976270N13253 1976 118 EP MM LIZA 1976-09-26 12:00:00 TS 14.0000 -109.000 30 hurdat_epa main 734 716 O________OO___ hurdat_epa EP121976 14.0000 -109.000 TD 30 -1 14.0000 -109.000 TC 30 14.0000 -109.000 1 30 4 342
1976270N13253 1976 118 EP MM LIZA 1976-09-26 15:00:00 TS 14.1840 -109.035 main 716 698 P________PP___ EP121976 14.2000 -109.030 TD 32 -1 14.2000 -109.030 TC 32 14.1201 -109.053 1 31 4 358
1976270N13253 1976 118 EP MM LIZA 1976-09-26 18:00:00 TS 14.3625 -109.004 35 hurdat_epa main 698 690 O________OP___ hurdat_epa EP121976 14.4000 -109.000 TS 35 0 14.4000 -109.000 TC 35 14.2123 -109.020 1 32 4 12
1976270N13253 1976 118 EP MM LIZA 1976-09-26 21:00:00 TS 14.5447 -108.951 main 690 666 P________PP___ EP121976 14.6000 -108.958 TS 37 0 14.6000 -108.958 TC 37 14.3233 -108.927 1 33 4 17
1976270N13253 1976 118 EP MM LIZA 1976-09-27 00:00:00 TS 14.7400 -108.880 40 hurdat_epa main 666 633 O________OO___ hurdat_epa EP121976 14.8000 -108.900 TS 40 0 14.8000 -108.900 TC 40 14.5000 -108.800 2 35 5 18
1976270N13253 1976 118 EP MM LIZA 1976-09-27 03:00:00 TS 14.9712 -108.809 main 633 609 P________PP___ EP121976 15.0000 -108.850 TS 42 0 15.0000 -108.850 TC 42 14.8561 -108.643 2 37 5 17
1976270N13253 1976 118 EP MM LIZA 1976-09-27 06:00:00 TS 15.2145 -108.733 45 hurdat_epa main 609 593 O________OP___ hurdat_epa EP121976 15.2000 -108.800 TS 45 0 15.2000 -108.800 TC 45 15.2727 -108.464 2 40 5 17
1976270N13253 1976 118 EP MM LIZA 1976-09-27 09:00:00 TS 15.4616 -108.654 main 585 562 P________PP___ EP121976 15.4075 -108.743 TS 47 0 15.4075 -108.743 TC 47 15.6779 -108.302 2 42 5 15
1976270N13253 1976 118 EP MM LIZA 1976-09-27 12:00:00 TS 15.6800 -108.600 50 hurdat_epa main 562 554 O________OO___ hurdat_epa EP121976 15.6000 -108.700 TS 50 0 15.6000 -108.700 TC 50 16.0000 -108.200 2 45 4 6
1976270N13253 1976 118 EP MM LIZA 1976-09-27 15:00:00 TS 15.8197 -108.604 main 554 546 P________PP___ EP121976 15.7500 -108.700 TS 52 0 15.7500 -108.700 TC 52 16.0987 -108.222 2 48 3 0
1976270N13253 1976 118 EP MM LIZA 1976-09-27 18:00:00 TS 15.9430 -108.621 55 hurdat_epa main 546 530 O________OP___ hurdat_epa EP121976 15.9000 -108.700 TS 55 0 15.9000 -108.700 TC 55 16.1150 -108.305 2 52 3 354
1976270N13253 1976 118 EP MM LIZA 1976-09-27 21:00:00 TS 16.0868 -108.608 main 530 515 P________PP___ EP121976 16.0775 -108.658 TS 60 0 16.0775 -108.658 TC 60 16.1238 -108.410 2 56 3 8
1976270N13253 1976 118 EP MM LIZA 1976-09-28 00:00:00 TS 16.2800 -108.580 65 hurdat_epa main 515 499 O________OO___ hurdat_epa EP121976 16.3000 -108.600 HU 65 1 16.3000 -108.600 TC 65 16.2000 -108.500 2 60 5 7
1976270N13253 1976 118 EP MM LIZA 1976-09-28 03:00:00 TS 16.5612 -108.555 main 491 460 P________PP___ EP121976 16.5850 -108.557 HU 72 1 16.5850 -108.557 TC 72 16.4662 -108.546 2 60 6 7
1976270N13253 1976 118 EP MM LIZA 1976-09-28 06:00:00 TS 16.8810 -108.513 80 hurdat_epa main 460 430 O________OP___ hurdat_epa EP121976 16.9000 -108.500 HU 80 1 16.9000 -108.500 TC 80 16.8049 -108.567 2 60 7 10
1976270N13253 1976 118 EP MM LIZA 1976-09-28 09:00:00 TS 17.1992 -108.437 main 430 400 P________PP___ EP121976 17.2075 -108.408 HU 82 1 17.2075 -108.408 TC 82 17.1662 -108.555 2 60 6 15
1976270N13253 1976 118 EP MM LIZA 1976-09-28 12:00:00 TS 17.5000 -108.340 85 hurdat_epa main 400 378 O________OO___ hurdat_epa EP121976 17.5000 -108.300 HU 85 2 17.5000 -108.300 TC 85 17.5000 -108.500 2 60 6 19
1976270N13253 1976 118 EP MM LIZA 1976-09-28 15:00:00 TS 17.7540 -108.233 main 372 350 P________PP___ EP121976 17.7575 -108.200 HU 87 2 17.7575 -108.200 TC 87 17.7402 -108.365 2 62 5 23
1976270N13253 1976 118 EP MM LIZA 1976-09-28 18:00:00 TS 17.9890 -108.119 90 hurdat_epa main 350 329 O________OP___ hurdat_epa EP121976 18.0000 -108.100 HU 90 2 18.0000 -108.100 TC 90 17.9452 -108.193 2 65 5 25
1976270N13253 1976 118 EP MM LIZA 1976-09-28 21:00:00 TS 18.2375 -107.993 main 329 309 P________PP___ EP121976 18.2650 -107.985 HU 95 2 18.2650 -107.985 TC 95 18.1276 -108.024 2 67 5 24
1976270N13253 1976 118 EP MM LIZA 1976-09-29 00:00:00 TS 18.4600 -107.900 100 hurdat_epa main 302 296 O________OO___ hurdat_epa EP121976 18.5000 -107.900 HU 100 3 18.5000 -107.900 TC 100 18.3000 -107.900 4 70 4 15
1976270N13253 1976 118 EP MM LIZA 1976-09-29 03:00:00 TS 18.6320 -107.878 main 296 285 P________PP___ EP121976 18.6725 -107.877 HU 102 3 18.6725 -107.877 TC 102 18.4699 -107.882 4 71 3 0
1976270N13253 1976 118 EP MM LIZA 1976-09-29 06:00:00 TS 18.7670 -107.902 105 hurdat_epa main 285 280 O________OP___ hurdat_epa EP121976 18.8000 -107.900 HU 105 3 18.8000 -107.900 TC 105 18.6349 -107.912 4 72 3 344
1976270N13253 1976 118 EP MM LIZA 1976-09-29 09:00:00 TS 18.8815 -107.946 main 280 280 P________PP___ EP121976 18.9000 -107.943 HU 107 3 18.9000 -107.943 TC 107 18.8075 -107.961 4 73 3 339
1976270N13253 1976 118 EP MM LIZA 1976-09-29 12:00:00 TS 19.0000 -108.000 110 hurdat_epa main 284 280 O________OO___ hurdat_epa EP121976 19.0000 -108.000 HU 110 3 19.0000 -108.000 TC 110 19.0000 -108.000 4 75 3 346
1976270N13253 1976 118 EP MM LIZA 1976-09-29 15:00:00 TS 19.1444 -108.024 main 280 270 P________PP___ EP121976 19.1275 -108.043 HU 115 4 19.1275 -108.043 TC 115 19.2121 -107.949 4 83 3 351
1976270N13253 1976 118 EP MM LIZA 1976-09-29 18:00:00 TS 19.3295 -108.058 120 971 hurdat_epa main 279 270 O________OP___ hurdat_epa EP121976 19.3000 -108.100 HU 120 971 4 19.3000 -108.100 TC 120 971 19.4474 -107.891 4 92 4 347
1976270N13253 1976 118 EP MM LIZA 1976-09-29 21:00:00 TS 19.5638 -108.126 main 266 266 P________PP___ EP121976 19.5275 -108.193 HU 120 4 19.5275 -108.193 TC 120 19.7089 -107.862 4 101 5 343
1976270N13253 1976 118 EP MM LIZA 1976-09-30 00:00:00 TS 19.8400 -108.220 120 hurdat_epa main 269 266 O________OO___ hurdat_epa EP121976 19.8000 -108.300 HU 120 4 19.8000 -108.300 TC 120 20.0000 -107.900 4 110 6 340
1976270N13253 1976 118 EP MM LIZA 1976-09-30 03:00:00 TS 20.1062 -108.334 main 273 273 P________PP___ EP121976 20.0625 -108.400 HU 120 4 20.0625 -108.400 TC 120 20.2810 -108.069 4 108 6 339
1976270N13253 1976 118 EP MM LIZA 1976-09-30 06:00:00 TS 20.4391 -108.461 120 hurdat_epa main 291 265 O________OP___ hurdat_epa EP121976 20.4000 -108.500 HU 120 4 20.4000 -108.500 TC 120 20.5955 -108.305 4 107 8 342
1976270N13253 1976 118 EP MM LIZA 1976-09-30 09:00:00 TS 20.8765 -108.593 main 255 202 P________PP___ EP121976 20.8550 -108.600 HU 120 4 20.8550 -108.600 TC 120 20.9623 -108.563 4 106 10 346
1976270N13253 1976 118 EP MM LIZA 1976-09-30 12:00:00 TS 21.4000 -108.720 120 948 hurdat_epa main 202 151 O________OO___ hurdat_epa EP121976 21.4000 -108.700 HU 120 948 4 21.4000 -108.700 TC 120 948 21.4000 -108.800 4 105 11 349
1976270N13253 1976 118 EP MM LIZA 1976-09-30 15:00:00 TS 21.9736 -108.827 main 143 90 P________PP___ EP121976 21.9850 -108.793 HU 120 959 4 21.9850 -108.793 TC 120 959 21.9281 -108.966 4 107 12 350
1976270N13253 1976 118 EP MM LIZA 1976-09-30 18:00:00 TS 22.5850 -108.941 120 971 hurdat_epa main 90 37 O________OP___ hurdat_epa EP121976 22.6000 -108.900 HU 120 971 4 22.6000 -108.900 TC 120 971 22.5250 -109.102 4 110 12 349
1976270N13253 1976 118 EP MM LIZA 1976-09-30 21:00:00 TS 23.1919 -109.083 main 37 23 P________PP___ EP121976 23.2000 -109.050 HU 120 4 23.2000 -109.050 TC 120 23.1594 -109.213 4 112 12 348
1976270N13253 1976 118 EP MM LIZA 1976-10-01 00:00:00 TS 23.8000 -109.220 120 hurdat_epa main 37 37 O________OO___ hurdat_epa EP121976 23.8000 -109.200 HU 120 4 23.8000 -109.200 TC 120 23.8000 -109.300 4 115 12 348
1976270N13253 1976 118 EP MM LIZA 1976-10-01 03:00:00 TS 24.3630 -109.354 main 60 60 P________PP___ EP121976 24.3925 -109.322 HU 117 4 24.3925 -109.322 TC 117 24.2449 -109.478 4 111 12 350
1976270N13253 1976 118 EP MM LIZA 1976-10-01 06:00:00 TS 24.9427 -109.444 115 hurdat_epa main 73 24 O________OP___ hurdat_epa EP121976 25.0000 -109.400 HU 115 4 25.0000 -109.400 TC 115 24.7134 -109.619 4 107 12 355
1976270N13253 1976 118 EP MM LIZA 1976-10-01 09:00:00 TS 25.5850 -109.474 main 15 0 P________PP___ EP121976 25.6500 -109.430 HU 112 3 25.6500 -109.430 TC 112 25.3252 -109.651 4 103 13 1
1976270N13253 1976 118 EP MM LIZA 1976-10-01 12:00:00 TS 26.2842 -109.416 110 hurdat_epa main 9 0 O________OO___ hurdat_epa EP121976 26.3000 -109.400 HU 110 3 26.3000 -109.400 TC 110 26.2000 -109.500 4 100 14 6
1976270N13253 1976 118 EP MM LIZA 1976-10-01 15:00:00 TS 26.9561 -109.320 main 0 0 P________PP___ EP121976 26.8999 -109.345 HU 90 2 26.8999 -109.345 TC 90 27.4053 -109.121 4 75 13 10
1976270N13253 1976 118 EP MM LIZA 1976-10-01 18:00:00 ET 27.6000 -109.154 70 hurdat_epa main 0 0 O________OO___ hurdat_epa EP121976 27.5000 -109.200 ET 70 -4 27.5000 -109.200 70 28.8000 -108.600 2 50 12 16
1976270N13253 1976 118 EP MM LIZA 1976-10-01 21:00:00 ET 28.1378 -108.936 main 0 0 P________P____ EP121976 28.1378 -108.936 ET 52 -4 28.1378 -108.936 52 2 13 22
1976270N13253 1976 118 EP MM LIZA 1976-10-02 00:00:00 ET 28.8000 -108.600 35 hurdat_epa main 0 O________O____ hurdat_epa EP121976 28.8000 -108.600 ET 35 -4 28.8000 -108.600 35 15 24

IBTrACS Databaseについて

本データベースは、米国NOAAが公開する1842年以降の世界の熱帯低気圧のベストトラックデータアーカイブInternational Best Track Archive for Climate Stewardship (IBTrACS)を、ウェブで閲覧しやすい形式に変換したものです。

最終更新日:2021-10-21